createdAt,value
2024-01-15T00:00:25.318Z,101.83
2024-01-15T00:00:57.250Z,103.57
2024-01-15T00:01:29.186Z,103.20
2024-01-15T00:02:01.003Z,103.40
2024-01-15T00:02:32.809Z,105.60
2024-01-15T00:03:05.039Z,107.70
2024-01-15T00:03:37.001Z,104.30
2024-01-15T00:04:08.964Z,106.90
2024-01-15T00:04:41.678Z,103.20
2024-01-15T00:05:13.514Z,102.10
2024-01-15T00:05:45.360Z,100.43
2024-01-15T00:06:17.320Z,101.17
2024-01-15T00:06:50.339Z,103.93
2024-01-15T00:07:22.304Z,102.63
2024-01-15T00:07:54.129Z,101.33
2024-01-15T00:08:25.976Z,101.37
2024-01-15T00:08:59.364Z,103.47
2024-01-15T00:09:31.286Z,108.20
2024-01-15T00:10:03.629Z,108.77
2024-01-15T00:10:35.448Z,107.73
2024-01-15T00:11:07.252Z,102.60
2024-01-15T00:11:39.116Z,104.13
2024-01-15T00:12:11.026Z,103.87
2024-01-15T00:12:43.080Z,103.37
2024-01-15T00:13:14.935Z,97.33
2024-01-15T00:13:47.200Z,98.70
2024-01-15T00:14:21.434Z,98.40
2024-01-15T00:14:53.424Z,96.90
2024-01-15T00:15:25.250Z,97.70
2024-01-15T00:15:57.330Z,97.10
2024-01-15T00:16:29.169Z,96.73
2024-01-15T00:17:00.973Z,96.70
2024-01-15T00:17:32.813Z,102.23
2024-01-15T00:18:05.107Z,103.70
2024-01-15T00:18:37.249Z,102.97
2024-01-15T00:19:09.279Z,99.90
2024-01-15T00:19:41.371Z,100.80
2024-01-15T00:20:13.833Z,104.10
2024-01-15T00:20:45.619Z,115.03
2024-01-15T00:21:17.479Z,118.33
2024-01-15T00:21:49.484Z,121.30
2024-01-15T00:22:21.411Z,116.73
2024-01-15T00:22:53.190Z,117.17
2024-01-15T00:23:24.988Z,119.50
2024-01-15T00:23:56.781Z,122.37
2024-01-15T00:24:28.639Z,121.00
2024-01-15T00:25:00.456Z,119.37
2024-01-15T00:25:32.465Z,113.07
2024-01-15T00:26:04.849Z,116.43
2024-01-15T00:26:37.527Z,112.63
2024-01-15T00:27:09.938Z,113.60
2024-01-15T00:27:42.024Z,110.50
2024-01-15T00:28:13.839Z,111.57
2024-01-15T00:28:45.677Z,112.30
2024-01-15T00:29:17.540Z,115.60
2024-01-15T00:29:49.372Z,114.73
2024-01-15T00:30:21.634Z,115.97
2024-01-15T00:30:53.721Z,113.40
2024-01-15T00:31:25.663Z,109.90
2024-01-15T00:31:57.536Z,110.80
2024-01-15T00:32:29.433Z,109.57
2024-01-15T00:33:01.351Z,109.17
2024-01-15T00:33:33.420Z,109.50
2024-01-15T00:34:05.404Z,109.33
2024-01-15T00:34:37.379Z,106.53
2024-01-15T00:35:09.521Z,106.67
2024-01-15T00:35:42.107Z,104.37
2024-01-15T00:36:15.510Z,104.47
2024-01-15T00:36:47.445Z,106.77
2024-01-15T00:37:19.243Z,104.97
2024-01-15T00:37:51.027Z,105.67
2024-01-15T00:38:22.883Z,108.70
2024-01-15T00:38:55.124Z,109.50
2024-01-15T00:39:27.601Z,106.90
2024-01-15T00:39:59.438Z,107.43
2024-01-15T00:40:31.201Z,107.07
2024-01-15T00:41:03.992Z,104.40
2024-01-15T00:41:35.765Z,104.60
2024-01-15T00:42:07.692Z,104.23
2024-01-15T00:42:39.650Z,104.37
2024-01-15T00:43:11.541Z,105.13
2024-01-15T00:43:43.338Z,102.77
2024-01-15T00:44:15.188Z,100.90
2024-01-15T00:44:47.007Z,101.20
2024-01-15T00:45:19.063Z,110.20
2024-01-15T00:45:51.018Z,152.50
2024-01-15T00:46:23.121Z,202.23
2024-01-15T00:46:54.940Z,216.70
2024-01-15T00:47:27.244Z,160.00
2024-01-15T00:48:00.742Z,122.93
2024-01-15T00:48:33.191Z,112.17
2024-01-15T00:49:05.372Z,107.87
2024-01-15T00:49:37.292Z,102.63
2024-01-15T00:50:09.634Z,100.23
2024-01-15T00:50:41.402Z,98.00
2024-01-15T00:51:13.278Z,96.73
2024-01-15T00:51:45.236Z,97.43
2024-01-15T00:52:17.159Z,95.43
2024-01-15T00:52:48.968Z,95.23
2024-01-15T00:53:23.164Z,97.03
2024-01-15T00:53:55.015Z,98.20
2024-01-15T00:54:27.615Z,99.33
2024-01-15T00:54:59.502Z,97.00
2024-01-15T00:55:31.324Z,101.83
2024-01-15T00:56:04.231Z,100.00
2024-01-15T00:56:36.156Z,99.43
2024-01-15T00:57:08.039Z,98.07
2024-01-15T00:57:41.467Z,99.50
2024-01-15T00:58:13.327Z,101.07
2024-01-15T00:58:45.125Z,98.30
2024-01-15T00:59:17.006Z,96.80
2024-01-15T00:59:49.357Z,98.10
2024-01-15T01:00:21.378Z,99.00
2024-01-15T01:00:53.379Z,99.43
2024-01-15T01:01:25.325Z,98.07
2024-01-15T01:01:57.338Z,98.93
2024-01-15T01:02:29.180Z,96.50
2024-01-15T01:03:01.099Z,96.47
2024-01-15T01:03:33.057Z,96.83
2024-01-15T01:04:05.238Z,98.23
2024-01-15T01:04:37.175Z,98.67
2024-01-15T01:05:09.044Z,99.93
2024-01-15T01:05:41.061Z,101.43
2024-01-15T01:06:12.933Z,102.00
2024-01-15T01:06:44.843Z,100.17
2024-01-15T01:07:16.773Z,100.10
2024-01-15T01:07:48.602Z,100.67
2024-01-15T01:08:20.379Z,101.03
2024-01-15T01:08:52.198Z,99.00
2024-01-15T01:09:24.088Z,99.53
2024-01-15T01:09:56.589Z,101.47
2024-01-15T01:10:28.938Z,102.50
2024-01-15T01:11:00.832Z,102.30
2024-01-15T01:11:32.606Z,99.77
2024-01-15T01:12:04.632Z,100.87
2024-01-15T01:12:36.483Z,102.13
2024-01-15T01:13:08.379Z,102.80
2024-01-15T01:13:40.338Z,103.13
2024-01-15T01:14:12.157Z,106.00
2024-01-15T01:14:43.982Z,106.27
2024-01-15T01:15:15.844Z,105.10
2024-01-15T01:15:47.761Z,105.90
2024-01-15T01:16:19.569Z,107.07
2024-01-15T01:16:51.345Z,108.83
2024-01-15T01:17:23.924Z,107.23
2024-01-15T01:17:56.076Z,108.97
2024-01-15T01:18:28.204Z,106.87
2024-01-15T01:19:00.217Z,104.83
2024-01-15T01:19:32.663Z,106.53
2024-01-15T01:20:07.337Z,107.00
2024-01-15T01:20:39.451Z,103.97
2024-01-15T01:21:11.448Z,104.70
2024-01-15T01:21:43.310Z,106.53
2024-01-15T01:22:15.149Z,106.87
2024-01-15T01:22:47.008Z,107.80
2024-01-15T01:23:19.080Z,110.13
2024-01-15T01:23:50.876Z,114.23
2024-01-15T01:24:22.755Z,116.77
2024-01-15T01:24:54.617Z,112.33
2024-01-15T01:25:26.433Z,111.00
2024-01-15T01:25:58.321Z,110.17
2024-01-15T01:26:30.122Z,108.37
2024-01-15T01:27:01.981Z,109.27
2024-01-15T01:27:33.970Z,108.30
2024-01-15T01:28:05.906Z,107.97
2024-01-15T01:28:37.772Z,106.97
2024-01-15T01:29:10.136Z,106.50
2024-01-15T01:29:41.965Z,103.90
2024-01-15T01:30:13.989Z,106.87
2024-01-15T01:30:46.033Z,102.83
2024-01-15T01:31:18.009Z,100.20
2024-01-15T01:31:50.230Z,99.53
2024-01-15T01:32:22.023Z,99.70
2024-01-15T01:32:53.839Z,98.20
2024-01-15T01:33:25.775Z,99.53
2024-01-15T01:33:57.721Z,98.10
2024-01-15T01:34:32.892Z,99.20
2024-01-15T01:35:06.452Z,98.30
2024-01-15T01:35:38.598Z,94.73
2024-01-15T01:36:10.952Z,100.07
2024-01-15T01:36:44.087Z,104.13
2024-01-15T01:37:15.951Z,99.97
2024-01-15T01:37:47.778Z,99.37
2024-01-15T01:38:19.633Z,99.23
2024-01-15T01:38:51.534Z,97.90
2024-01-15T01:39:23.877Z,96.83
2024-01-15T01:39:55.772Z,97.03
2024-01-15T01:40:27.725Z,98.67
2024-01-15T01:40:59.557Z,102.23
2024-01-15T01:41:31.353Z,104.40
2024-01-15T01:42:03.171Z,100.97
2024-01-15T01:42:35.040Z,103.63
2024-01-15T01:43:06.955Z,102.23
2024-01-15T01:43:38.739Z,100.60
2024-01-15T01:44:10.500Z,102.57
2024-01-15T01:44:42.535Z,102.83
2024-01-15T01:45:14.380Z,103.23
2024-01-15T01:45:46.399Z,101.77
2024-01-15T01:46:18.784Z,100.77
2024-01-15T01:46:50.807Z,100.33
2024-01-15T01:47:22.803Z,100.97
2024-01-15T01:47:54.858Z,99.20
2024-01-15T01:48:27.573Z,100.20
2024-01-15T01:49:02.728Z,99.20
2024-01-15T01:49:37.068Z,104.13
2024-01-15T01:50:09.527Z,103.77
2024-01-15T01:50:41.477Z,104.57
2024-01-15T01:51:13.398Z,101.33
2024-01-15T01:51:46.116Z,102.13
2024-01-15T01:52:17.917Z,100.83
2024-01-15T01:52:50.368Z,98.83
2024-01-15T01:53:23.259Z,103.13
2024-01-15T01:53:55.115Z,101.00
2024-01-15T01:54:32.456Z,101.07
2024-01-15T01:55:07.202Z,101.53
2024-01-15T01:55:40.263Z,102.53
2024-01-15T01:56:12.985Z,102.50
2024-01-15T01:56:44.993Z,102.90
2024-01-15T01:57:19.085Z,100.57
2024-01-15T01:57:52.259Z,99.97
2024-01-15T01:58:24.303Z,104.20
2024-01-15T01:58:56.363Z,103.50
2024-01-15T01:59:28.816Z,100.07
2024-01-15T02:00:01.337Z,98.27
2024-01-15T02:00:36.301Z,98.17
2024-01-15T02:01:08.769Z,99.67
2024-01-15T02:01:42.136Z,100.43
2024-01-15T02:02:14.814Z,101.60
2024-01-15T02:02:46.694Z,99.77
2024-01-15T02:03:18.614Z,98.77
2024-01-15T02:03:50.635Z,101.77
2024-01-15T02:04:25.657Z,105.47
2024-01-15T02:04:57.690Z,107.27
2024-01-15T02:05:31.331Z,107.67
2024-01-15T02:06:03.141Z,106.10
2024-01-15T02:06:35.345Z,106.90
2024-01-15T02:07:07.483Z,102.87
2024-01-15T02:07:39.638Z,103.10
2024-01-15T02:08:11.475Z,105.77
2024-01-15T02:08:45.055Z,105.17
2024-01-15T02:09:16.917Z,105.27
2024-01-15T02:09:49.046Z,103.37
2024-01-15T02:10:21.049Z,105.20
2024-01-15T02:10:52.822Z,104.93
2024-01-15T02:11:24.931Z,104.90
2024-01-15T02:11:57.198Z,101.07
2024-01-15T02:12:29.064Z,102.40
2024-01-15T02:13:01.072Z,104.07
2024-01-15T02:13:32.886Z,103.20
2024-01-15T02:14:04.760Z,101.20
2024-01-15T02:14:36.533Z,101.20
2024-01-15T02:15:08.768Z,102.83
2024-01-15T02:15:41.355Z,104.13
2024-01-15T02:16:13.139Z,104.07
2024-01-15T02:16:44.966Z,106.60
2024-01-15T02:17:16.845Z,107.43
2024-01-15T02:18:02.986Z,108.67
2024-01-15T02:18:45.579Z,109.13
2024-01-15T02:19:18.506Z,108.60
2024-01-15T02:19:51.591Z,117.67
2024-01-15T02:20:23.656Z,123.73
2024-01-15T02:20:55.897Z,129.43
2024-01-15T02:21:29.845Z,131.53
2024-01-15T02:22:01.719Z,130.40
2024-01-15T02:22:33.581Z,126.70
2024-01-15T02:23:11.991Z,135.97
2024-01-15T02:23:43.848Z,133.83
2024-01-15T02:24:15.749Z,131.07
2024-01-15T02:24:47.652Z,127.70
2024-01-15T02:25:20.544Z,122.13
2024-01-15T02:25:52.607Z,121.73
2024-01-15T02:26:24.621Z,114.93
2024-01-15T02:26:56.442Z,118.43
2024-01-15T02:27:28.294Z,114.93
2024-01-15T02:28:00.178Z,111.90
2024-01-15T02:28:33.602Z,110.60
2024-01-15T02:29:08.051Z,112.17
2024-01-15T02:29:40.463Z,109.50
2024-01-15T02:30:15.206Z,108.97
2024-01-15T02:30:47.237Z,109.90
2024-01-15T02:31:19.384Z,108.00
2024-01-15T02:31:51.308Z,105.87
2024-01-15T02:32:23.126Z,105.60
2024-01-15T02:32:55.011Z,109.57
2024-01-15T02:33:26.970Z,108.77
2024-01-15T02:33:59.168Z,106.63
2024-01-15T02:34:36.147Z,107.33
2024-01-15T02:35:08.228Z,108.33
2024-01-15T02:35:40.328Z,105.53
2024-01-15T02:36:12.198Z,106.10
2024-01-15T02:36:44.184Z,105.43
2024-01-15T02:37:16.047Z,104.20
2024-01-15T02:37:47.888Z,102.90
2024-01-15T02:38:20.251Z,103.53
2024-01-15T02:38:52.056Z,104.60
2024-01-15T02:39:23.955Z,105.07
2024-01-15T02:39:55.981Z,102.13
2024-01-15T02:40:27.744Z,102.00
2024-01-15T02:41:00.022Z,105.17
2024-01-15T02:41:31.835Z,101.77
2024-01-15T02:42:03.705Z,100.17
2024-01-15T02:42:35.963Z,102.77
2024-01-15T02:43:07.791Z,104.37
2024-01-15T02:43:39.583Z,107.33
2024-01-15T02:44:11.441Z,107.53
2024-01-15T02:44:43.304Z,105.57
2024-01-15T02:45:15.156Z,104.63
2024-01-15T02:45:48.076Z,104.20
2024-01-15T02:46:20.048Z,101.83
2024-01-15T02:46:52.288Z,102.23
2024-01-15T02:47:24.058Z,101.33
2024-01-15T02:47:55.968Z,97.40
2024-01-15T02:48:27.976Z,98.93
2024-01-15T02:49:00.050Z,99.93
2024-01-15T02:49:33.629Z,100.63
2024-01-15T02:50:06.330Z,98.17
2024-01-15T02:50:38.154Z,97.67
2024-01-15T02:51:10.131Z,97.57
2024-01-15T02:51:42.086Z,97.90
2024-01-15T02:52:13.922Z,97.03
2024-01-15T02:52:45.689Z,94.13
2024-01-15T02:53:17.526Z,94.33
2024-01-15T02:53:51.454Z,93.07
2024-01-15T02:54:23.390Z,91.17
2024-01-15T02:54:55.255Z,91.27
2024-01-15T02:55:27.091Z,93.10
2024-01-15T02:55:58.891Z,94.17
2024-01-15T02:56:30.660Z,94.90
2024-01-15T02:57:02.529Z,93.80
2024-01-15T02:57:34.687Z,90.97
2024-01-15T02:58:06.543Z,88.60
2024-01-15T02:58:38.326Z,88.80
2024-01-15T02:59:10.118Z,90.40
2024-01-15T02:59:41.962Z,91.67
2024-01-15T03:00:14.101Z,91.63
2024-01-15T03:00:47.438Z,92.07
2024-01-15T03:01:23.193Z,91.13
2024-01-15T03:01:55.140Z,90.70
2024-01-15T03:02:27.060Z,89.80
2024-01-15T03:02:58.988Z,87.53
2024-01-15T03:03:30.926Z,88.53
2024-01-15T03:04:02.961Z,88.17
2024-01-15T03:04:34.914Z,88.57
2024-01-15T03:05:08.784Z,88.47
2024-01-15T03:05:40.708Z,87.30
2024-01-15T03:06:12.701Z,85.17
2024-01-15T03:06:44.638Z,85.80
2024-01-15T03:07:16.973Z,88.03
2024-01-15T03:07:49.245Z,88.87
2024-01-15T03:08:21.076Z,87.87
2024-01-15T03:08:52.923Z,88.40
2024-01-15T03:09:24.938Z,90.60
2024-01-15T03:09:56.826Z,89.30
2024-01-15T03:10:28.674Z,88.40
2024-01-15T03:11:00.542Z,89.90
2024-01-15T03:11:39.116Z,89.40
2024-01-15T03:12:12.189Z,87.20
2024-01-15T03:12:44.265Z,86.70
2024-01-15T03:13:16.233Z,87.40
2024-01-15T03:13:48.058Z,88.90
2024-01-15T03:14:19.935Z,89.03
2024-01-15T03:14:51.787Z,87.80
2024-01-15T03:15:23.618Z,89.87
2024-01-15T03:15:55.986Z,88.60
2024-01-15T03:16:27.872Z,89.47
2024-01-15T03:16:59.816Z,88.10
2024-01-15T03:17:31.694Z,88.33
2024-01-15T03:18:03.604Z,89.57
2024-01-15T03:18:35.732Z,88.07
2024-01-15T03:19:07.729Z,93.53
2024-01-15T03:19:39.721Z,94.03
2024-01-15T03:20:12.189Z,92.50
2024-01-15T03:20:43.983Z,91.80
2024-01-15T03:21:15.813Z,89.13
2024-01-15T03:21:47.717Z,87.80
2024-01-15T03:22:19.574Z,89.27
2024-01-15T03:22:51.328Z,89.97
2024-01-15T03:23:23.082Z,90.37
2024-01-15T03:23:54.976Z,90.50
2024-01-15T03:24:26.774Z,92.27
2024-01-15T03:24:59.315Z,95.40
2024-01-15T03:25:31.135Z,94.80
2024-01-15T03:26:02.982Z,97.40
2024-01-15T03:26:34.811Z,98.63
2024-01-15T03:27:06.905Z,98.63
2024-01-15T03:27:38.795Z,98.93
2024-01-15T03:28:10.666Z,96.97
2024-01-15T03:28:42.437Z,93.40
2024-01-15T03:29:14.230Z,89.83
2024-01-15T03:29:45.992Z,89.23
2024-01-15T03:30:17.943Z,86.83
2024-01-15T03:30:49.888Z,85.40
2024-01-15T03:31:21.820Z,86.07
2024-01-15T03:31:53.854Z,88.20
2024-01-15T03:32:25.714Z,88.00
2024-01-15T03:32:57.571Z,86.17
2024-01-15T03:33:29.572Z,86.83
2024-01-15T03:34:01.645Z,85.77
2024-01-15T03:34:33.643Z,85.20
2024-01-15T03:35:05.880Z,85.97
2024-01-15T03:35:37.794Z,85.40
2024-01-15T03:36:10.139Z,86.40
2024-01-15T03:36:42.054Z,87.73
2024-01-15T03:37:13.901Z,85.30
2024-01-15T03:37:45.802Z,84.40
2024-01-15T03:38:17.624Z,84.50
2024-01-15T03:38:49.385Z,84.60
2024-01-15T03:39:21.256Z,85.10
2024-01-15T03:39:53.214Z,86.00
2024-01-15T03:40:25.299Z,86.70
2024-01-15T03:40:57.137Z,85.93
2024-01-15T03:41:29.215Z,86.53
2024-01-15T03:42:00.989Z,86.93
2024-01-15T03:42:32.904Z,87.60
2024-01-15T03:43:05.020Z,88.37
2024-01-15T03:43:36.839Z,90.27
2024-01-15T03:44:08.673Z,90.60
2024-01-15T03:44:40.527Z,89.63
2024-01-15T03:45:12.371Z,89.00
2024-01-15T03:45:44.242Z,89.73
2024-01-15T03:46:16.029Z,92.40
2024-01-15T03:46:47.777Z,94.03
2024-01-15T03:47:19.557Z,94.47
2024-01-15T03:47:51.578Z,94.50
2024-01-15T03:48:23.687Z,90.57
2024-01-15T03:48:55.707Z,98.47
2024-01-15T03:49:27.733Z,101.30
2024-01-15T03:49:59.641Z,100.93
2024-01-15T03:50:31.415Z,100.17
2024-01-15T03:51:03.311Z,101.73
2024-01-15T03:51:35.247Z,106.63
2024-01-15T03:52:07.047Z,111.13
2024-01-15T03:52:38.988Z,114.90
2024-01-15T03:53:10.759Z,128.00
2024-01-15T03:53:42.556Z,139.23
2024-01-15T03:54:15.313Z,135.83
2024-01-15T03:54:48.472Z,127.40
2024-01-15T03:55:20.434Z,129.33
2024-01-15T03:55:52.760Z,127.20
2024-01-15T03:56:24.634Z,125.80
2024-01-15T03:56:56.483Z,124.67
2024-01-15T03:57:28.381Z,122.50
2024-01-15T03:58:00.378Z,118.23
2024-01-15T03:58:32.312Z,117.23
2024-01-15T03:59:04.146Z,115.27
2024-01-15T03:59:36.045Z,108.63
2024-01-15T04:00:08.866Z,106.63
2024-01-15T04:00:40.771Z,107.50
2024-01-15T04:01:13.286Z,108.70
2024-01-15T04:01:54.414Z,111.13
2024-01-15T04:02:26.222Z,111.50
2024-01-15T04:02:57.994Z,112.53
2024-01-15T04:03:29.986Z,110.27
2024-01-15T04:04:01.936Z,108.13
2024-01-15T04:04:33.911Z,106.27
2024-01-15T04:05:06.093Z,105.53
2024-01-15T04:05:37.942Z,106.57
2024-01-15T04:06:09.825Z,102.13
2024-01-15T04:06:41.754Z,101.63
2024-01-15T04:07:13.796Z,103.30
2024-01-15T04:07:45.711Z,102.03
2024-01-15T04:08:17.527Z,100.10
2024-01-15T04:08:49.407Z,98.87
2024-01-15T04:09:21.265Z,97.87
2024-01-15T04:09:53.249Z,101.30
2024-01-15T04:10:25.278Z,131.73
2024-01-15T04:10:57.186Z,169.37
2024-01-15T04:11:29.030Z,254.30
2024-01-15T04:12:00.834Z,313.83
2024-01-15T04:12:32.752Z,244.47
2024-01-15T04:13:04.803Z,173.23
2024-01-15T04:13:37.383Z,144.70
2024-01-15T04:14:10.113Z,129.70
2024-01-15T04:14:41.937Z,122.00
2024-01-15T04:15:13.996Z,118.60
2024-01-15T04:15:45.886Z,117.27
2024-01-15T04:16:17.760Z,121.20
2024-01-15T04:16:49.620Z,122.97
2024-01-15T04:17:22.938Z,122.93
2024-01-15T04:17:54.984Z,120.13
2024-01-15T04:18:26.860Z,112.90
2024-01-15T04:18:59.441Z,110.33
2024-01-15T04:19:31.351Z,111.00
2024-01-15T04:20:03.163Z,109.40
2024-01-15T04:20:34.913Z,103.27
2024-01-15T04:21:07.599Z,102.87
2024-01-15T04:21:39.820Z,100.87
2024-01-15T04:22:11.691Z,98.10
2024-01-15T04:22:45.086Z,96.60
2024-01-15T04:23:16.954Z,100.40
2024-01-15T04:23:48.716Z,100.53
2024-01-15T04:24:20.504Z,98.33
2024-01-15T04:24:52.391Z,101.47
2024-01-15T04:25:24.279Z,101.60
2024-01-15T04:25:56.165Z,98.37
2024-01-15T04:26:28.015Z,96.53
2024-01-15T04:27:00.057Z,95.37
2024-01-15T04:27:31.980Z,94.43
2024-01-15T04:28:03.898Z,90.97
2024-01-15T04:28:35.713Z,89.93
2024-01-15T04:29:07.650Z,88.57
2024-01-15T04:29:41.680Z,90.60
2024-01-15T04:30:14.257Z,88.30
2024-01-15T04:30:46.232Z,86.40
2024-01-15T04:31:28.416Z,84.43
2024-01-15T04:32:00.601Z,84.57
2024-01-15T04:32:32.493Z,86.07
2024-01-15T04:33:04.583Z,87.23
2024-01-15T04:33:36.736Z,87.30
2024-01-15T04:34:08.724Z,91.27
2024-01-15T04:34:40.740Z,91.77
2024-01-15T04:35:13.821Z,89.83
2024-01-15T04:35:45.656Z,86.03
2024-01-15T04:36:17.588Z,87.27
2024-01-15T04:36:49.742Z,88.17
2024-01-15T04:37:21.666Z,87.67
2024-01-15T04:37:53.981Z,88.17
2024-01-15T04:38:25.809Z,83.73
2024-01-15T04:38:57.581Z,86.17
2024-01-15T04:39:30.862Z,86.20
2024-01-15T04:40:05.166Z,84.77
2024-01-15T04:40:37.088Z,84.90
2024-01-15T04:41:14.885Z,85.40
2024-01-15T04:41:46.733Z,85.57
2024-01-15T04:42:18.569Z,87.73
2024-01-15T04:42:50.468Z,85.13
2024-01-15T04:43:22.429Z,85.13
2024-01-15T04:43:54.250Z,88.17
2024-01-15T04:44:26.078Z,84.10
2024-01-15T04:44:57.988Z,83.13
2024-01-15T04:45:30.174Z,86.50
2024-01-15T04:46:02.118Z,87.73
2024-01-15T04:46:33.918Z,88.27
2024-01-15T04:47:05.715Z,86.40
2024-01-15T04:47:38.071Z,84.80
2024-01-15T04:48:10.012Z,85.97
2024-01-15T04:48:41.920Z,89.00
2024-01-15T04:49:14.147Z,87.67
2024-01-15T04:49:46.135Z,86.17
2024-01-15T04:50:18.010Z,85.90
2024-01-15T04:50:49.822Z,85.17
2024-01-15T04:51:21.721Z,85.63
2024-01-15T04:51:53.592Z,86.07
2024-01-15T04:52:25.529Z,85.80
2024-01-15T04:52:57.336Z,85.30
2024-01-15T04:53:29.197Z,89.13
2024-01-15T04:54:01.002Z,90.57
2024-01-15T04:54:32.899Z,92.97
2024-01-15T04:55:04.894Z,93.63
2024-01-15T04:55:36.674Z,92.83
2024-01-15T04:56:08.601Z,95.87
2024-01-15T04:56:40.837Z,98.57
2024-01-15T04:57:12.787Z,98.23
2024-01-15T04:57:45.104Z,97.83
2024-01-15T04:58:17.027Z,99.70
2024-01-15T04:58:48.841Z,96.93
2024-01-15T04:59:20.645Z,96.07
2024-01-15T04:59:52.493Z,95.73
2024-01-15T05:00:24.354Z,95.23
2024-01-15T05:00:56.293Z,94.27
2024-01-15T05:01:32.735Z,94.83
2024-01-15T05:02:04.589Z,93.63
2024-01-15T05:02:36.486Z,94.20
2024-01-15T05:03:08.384Z,93.60
2024-01-15T05:03:40.460Z,93.27
2024-01-15T05:04:12.539Z,93.70
2024-01-15T05:04:44.454Z,97.80
2024-01-15T05:05:16.809Z,96.67
2024-01-15T05:05:48.741Z,105.50
2024-01-15T05:06:20.654Z,107.80
2024-01-15T05:06:52.602Z,101.17
2024-01-15T05:07:24.592Z,97.73
2024-01-15T05:07:56.470Z,97.23
2024-01-15T05:08:28.451Z,97.40
2024-01-15T05:09:00.671Z,101.13
2024-01-15T05:09:33.256Z,107.13
2024-01-15T05:10:05.755Z,104.53
2024-01-15T05:10:37.768Z,103.20
2024-01-15T05:11:09.621Z,100.57
2024-01-15T05:11:41.462Z,96.57
2024-01-15T05:12:13.499Z,92.77
2024-01-15T05:12:45.464Z,91.03
2024-01-15T05:13:17.329Z,92.80
2024-01-15T05:13:49.348Z,93.47
2024-01-15T05:14:21.122Z,93.43
2024-01-15T05:14:52.944Z,93.83
2024-01-15T05:15:24.801Z,98.13
2024-01-15T05:15:56.933Z,103.80
2024-01-15T05:16:28.796Z,105.33
2024-01-15T05:17:00.591Z,105.80
2024-01-15T05:17:32.414Z,103.57
2024-01-15T05:18:04.355Z,104.27
2024-01-15T05:18:38.437Z,100.00
2024-01-15T05:19:10.414Z,100.30
2024-01-15T05:19:42.372Z,105.33
2024-01-15T05:20:14.405Z,103.73
2024-01-15T05:20:46.355Z,101.83
2024-01-15T05:21:18.218Z,100.60
2024-01-15T05:21:50.139Z,99.07
2024-01-15T05:22:22.358Z,96.03
2024-01-15T05:22:54.175Z,94.73
2024-01-15T05:23:26.086Z,93.53
2024-01-15T05:23:57.856Z,97.20
2024-01-15T05:24:29.686Z,96.40
2024-01-15T05:25:01.567Z,95.33
2024-01-15T05:25:33.420Z,96.97
2024-01-15T05:26:05.365Z,97.20
2024-01-15T05:26:37.240Z,98.07
2024-01-15T05:27:09.084Z,97.10
2024-01-15T05:27:40.988Z,93.67
2024-01-15T05:28:13.003Z,93.17
2024-01-15T05:28:44.838Z,95.03
2024-01-15T05:29:16.652Z,93.07
2024-01-15T05:29:48.468Z,94.90
2024-01-15T05:30:20.363Z,93.13
2024-01-15T05:30:52.582Z,90.60
2024-01-15T05:31:24.572Z,90.17
2024-01-15T05:31:58.255Z,91.00
2024-01-15T05:32:31.986Z,92.30
2024-01-15T05:33:04.425Z,89.43
2024-01-15T05:33:36.313Z,88.00
2024-01-15T05:34:08.248Z,87.70
2024-01-15T05:34:40.583Z,86.37
2024-01-15T05:35:12.452Z,86.27
2024-01-15T05:35:44.415Z,82.77
2024-01-15T05:36:16.250Z,84.63
2024-01-15T05:36:49.227Z,82.57
2024-01-15T05:37:21.174Z,83.57
2024-01-15T05:37:52.950Z,82.17
2024-01-15T05:38:24.874Z,80.60
2024-01-15T05:38:56.736Z,81.67
2024-01-15T05:39:28.636Z,82.23
2024-01-15T05:40:00.622Z,85.00
2024-01-15T05:40:32.680Z,83.53
2024-01-15T05:41:04.596Z,82.47
2024-01-15T05:41:36.416Z,82.63
2024-01-15T05:42:08.221Z,84.40
2024-01-15T05:42:41.015Z,83.17
2024-01-15T05:43:12.879Z,84.70
2024-01-15T05:43:44.702Z,83.80
2024-01-15T05:44:16.549Z,82.77
2024-01-15T05:44:48.389Z,82.57
2024-01-15T05:45:20.264Z,82.97
2024-01-15T05:45:52.334Z,83.37
2024-01-15T05:46:24.241Z,83.07
2024-01-15T05:46:56.038Z,81.40
2024-01-15T05:47:27.933Z,81.17
2024-01-15T05:47:59.887Z,80.80
2024-01-15T05:48:31.962Z,82.17
2024-01-15T05:49:03.908Z,83.40
2024-01-15T05:49:35.919Z,81.47
2024-01-15T05:50:08.160Z,81.90
2024-01-15T05:50:40.057Z,81.63
2024-01-15T05:51:11.898Z,80.30
2024-01-15T05:51:43.805Z,81.90
2024-01-15T05:52:15.771Z,82.63
2024-01-15T05:52:47.687Z,81.17
2024-01-15T05:53:19.471Z,80.60
2024-01-15T05:53:52.675Z,81.37
2024-01-15T05:54:24.925Z,81.67
2024-01-15T05:54:56.745Z,81.27
2024-01-15T05:55:28.553Z,82.43
2024-01-15T05:56:00.613Z,82.20
2024-01-15T05:56:32.461Z,82.10
2024-01-15T05:57:04.488Z,82.83
2024-01-15T05:57:36.315Z,79.97
2024-01-15T05:58:08.172Z,83.17
2024-01-15T05:58:39.930Z,85.70
2024-01-15T05:59:15.110Z,85.63
2024-01-15T05:59:47.804Z,83.07
2024-01-15T06:00:19.959Z,82.33
2024-01-15T06:00:52.009Z,80.77
2024-01-15T06:01:23.987Z,85.40
2024-01-15T06:01:56.103Z,85.67
2024-01-15T06:02:27.939Z,84.77
2024-01-15T06:03:00.568Z,83.90
2024-01-15T06:03:32.627Z,83.23
2024-01-15T06:04:04.810Z,85.27
2024-01-15T06:04:36.834Z,83.77
2024-01-15T06:05:08.674Z,83.63
2024-01-15T06:05:40.940Z,82.83
2024-01-15T06:06:13.041Z,85.03
2024-01-15T06:06:44.889Z,86.03
2024-01-15T06:07:20.638Z,83.53
2024-01-15T06:07:55.200Z,83.00
2024-01-15T06:08:40.287Z,81.13
2024-01-15T06:09:18.204Z,84.53
2024-01-15T06:09:50.412Z,83.00
2024-01-15T06:10:22.413Z,82.27
2024-01-15T06:10:54.345Z,83.00
2024-01-15T06:11:31.158Z,82.40
2024-01-15T06:12:02.917Z,85.23
2024-01-15T06:12:35.025Z,85.00
2024-01-15T06:13:06.966Z,84.13
2024-01-15T06:13:38.820Z,84.50
2024-01-15T06:14:10.631Z,81.70
2024-01-15T06:14:43.755Z,81.90
2024-01-15T06:15:15.599Z,82.43
2024-01-15T06:15:47.547Z,83.83
2024-01-15T06:16:21.270Z,80.03
2024-01-15T06:16:53.876Z,81.40
2024-01-15T06:17:25.768Z,79.13
2024-01-15T06:17:57.673Z,81.37
2024-01-15T06:18:29.643Z,82.00
2024-01-15T06:19:01.719Z,81.67
2024-01-15T06:19:33.785Z,82.53
2024-01-15T06:20:06.742Z,83.07
2024-01-15T06:20:39.398Z,81.97
2024-01-15T06:21:13.940Z,83.10
2024-01-15T06:21:45.908Z,84.63
2024-01-15T06:22:17.739Z,84.00
2024-01-15T06:22:49.501Z,84.30
2024-01-15T06:23:21.725Z,82.00
2024-01-15T06:23:53.733Z,82.27
2024-01-15T06:24:25.683Z,80.23
2024-01-15T06:24:57.649Z,81.13
2024-01-15T06:25:29.612Z,81.10
2024-01-15T06:26:01.450Z,80.10
2024-01-15T06:26:33.289Z,79.03
2024-01-15T06:27:05.274Z,83.23
2024-01-15T06:27:37.202Z,82.93
2024-01-15T06:28:09.043Z,82.27
2024-01-15T06:28:40.942Z,86.03
2024-01-15T06:29:12.866Z,84.47
2024-01-15T06:29:51.109Z,85.57
2024-01-15T06:30:23.516Z,83.77
2024-01-15T06:30:55.697Z,83.07
2024-01-15T06:31:27.777Z,84.83
2024-01-15T06:31:59.777Z,84.67
2024-01-15T06:32:31.730Z,91.20
2024-01-15T06:33:03.761Z,95.77
2024-01-15T06:33:35.695Z,92.33
2024-01-15T06:34:07.746Z,92.80
2024-01-15T06:34:39.704Z,92.67
2024-01-15T06:35:12.823Z,91.23
2024-01-15T06:35:44.784Z,89.77
2024-01-15T06:36:17.525Z,89.40
2024-01-15T06:36:49.474Z,92.73
2024-01-15T06:37:21.538Z,92.10
2024-01-15T06:37:53.380Z,91.90
2024-01-15T06:38:26.208Z,90.77
2024-01-15T06:38:58.042Z,86.20
2024-01-15T06:39:29.862Z,89.67
2024-01-15T06:40:01.829Z,87.23
2024-01-15T06:40:33.696Z,85.80
2024-01-15T06:41:05.526Z,84.30
2024-01-15T06:41:44.908Z,84.60
2024-01-15T06:42:16.945Z,83.90
2024-01-15T06:42:48.832Z,82.77
2024-01-15T06:43:20.657Z,81.20
2024-01-15T06:43:52.428Z,83.47
2024-01-15T06:44:24.373Z,84.43
2024-01-15T06:44:56.279Z,80.83
2024-01-15T06:45:28.193Z,81.03
2024-01-15T06:46:02.082Z,78.60
2024-01-15T06:46:36.171Z,81.80
2024-01-15T06:47:08.015Z,82.40
2024-01-15T06:47:40.150Z,79.87
2024-01-15T06:48:15.445Z,79.00
2024-01-15T06:48:47.355Z,81.07
2024-01-15T06:49:19.410Z,81.07
2024-01-15T06:49:53.077Z,79.70